Estación Meteorológica Peña el Pijo (Robertgarden) [ 07/19/18 09:10:47 CEST ]

Fecha Hora Presion(HPa) Temp (°C) Humedad % Rocio (°C) Viento ( m/s) Direccion Lluvia 1Hora(mm) Lluvia 24H(mm) LLuvia Total(mm)
2018-Jul-10 01:01:39 1013.100 15.7 57 7.2         269.36
2018-Jul-10 02:01:34 1012.900 16.1 55 7.0         269.36
2018-Jul-10 03:02:04 1012.500 17.5 53 7.8         269.36
2018-Jul-10 04:02:08 1012.400 17.0 53 7.3         269.36
2018-Jul-10 05:03:23 1012.200 18.2 52 8.1         269.36
2018-Jul-10 06:01:39 1012.200 17.8 53 8.0         269.36
2018-Jul-10 07:01:49 1012.400 17.3 54 7.8         269.36
2018-Jul-10 08:01:36 1012.400 18.9 58 10.5         269.36
2018-Jul-10 09:01:41 1012.700 24.8 51 14.0         269.36
2018-Jul-10 10:01:50 1012.500 28.9 39 13.6         269.36
2018-Jul-10 11:01:30 1012.000 32.4 33 14.0         269.36
2018-Jul-10 12:01:26 1011.500 34.7 23 10.3         269.36
2018-Jul-10 13:01:23 1011.200 37.1 19 9.5         269.36
2018-Jul-10 14:01:53 1010.800 35.9 19 8.5         269.36
2018-Jul-10 15:01:55 1010.400 37.3 18 8.6         269.36
2018-Jul-10 16:01:54 1009.700 37.6 19 9.9         269.36
2018-Jul-10 17:01:44 1009.600 33.3 22 8.6         269.36
2018-Jul-10 18:01:45 1009.500 37.3 22 11.9         269.36
2018-Jul-10 19:01:47 1009.500 34.7 24 10.9 1.1 S     269.36
2018-Jul-10 20:01:52 1009.600 32.2 20 6.5         269.36
2018-Jul-10 21:01:48 1010.200 28.1 22 4.2         269.36
2018-Jul-10 22:01:46 1010.500 24.1 30 5.5         269.36
2018-Jul-10 23:01:42 1011.000 22.1 36 6.2         269.36

Temperatura Máxima:37°    Temperatura Mínima:15°
Presión Máxima:1013.100 Hpa    Presión Mínima:1009.500 Hpa


Volver